createdAt,value
2022-08-16T00:03:36.721Z,25.97
2022-08-16T00:08:42.017Z,25.96
2022-08-16T00:13:54.202Z,25.93
2022-08-16T00:18:57.698Z,25.92
2022-08-16T00:24:04.502Z,25.91
2022-08-16T00:29:07.986Z,25.90
2022-08-16T00:34:18.479Z,25.90
2022-08-16T00:39:23.031Z,25.87
2022-08-16T00:44:31.945Z,25.85
2022-08-16T00:49:39.796Z,25.79
2022-08-16T00:54:49.145Z,25.73
2022-08-16T00:59:58.657Z,25.69
2022-08-16T01:05:11.313Z,25.72
2022-08-16T01:10:16.673Z,25.55
2022-08-16T01:15:19.902Z,25.50
2022-08-16T01:20:30.129Z,25.28
2022-08-16T01:25:37.117Z,25.32
2022-08-16T01:30:49.530Z,25.29
2022-08-16T01:35:56.190Z,25.26
2022-08-16T01:41:04.259Z,25.27
2022-08-16T01:46:29.875Z,25.10
2022-08-16T01:51:34.806Z,25.00
2022-08-16T01:56:44.921Z,24.91
2022-08-16T02:01:56.285Z,24.81
2022-08-16T02:07:08.694Z,24.94
2022-08-16T02:12:50.304Z,25.04
2022-08-16T02:17:39.964Z,25.10
2022-08-16T02:22:42.977Z,25.10
2022-08-16T02:27:51.713Z,25.13
2022-08-16T02:32:55.374Z,25.16
2022-08-16T02:38:01.842Z,25.17
2022-08-16T02:43:13.963Z,25.18
2022-08-16T02:48:29.550Z,25.18
2022-08-16T02:53:33.481Z,25.19
2022-08-16T02:58:37.841Z,25.18
2022-08-16T03:04:29.001Z,25.09
2022-08-16T03:09:09.751Z,25.15
2022-08-16T03:14:21.210Z,25.14
2022-08-16T03:19:48.798Z,25.13
2022-08-16T03:24:57.207Z,25.10
2022-08-16T03:30:16.026Z,24.89
2022-08-16T03:35:22.646Z,24.79
2022-08-16T03:40:32.946Z,24.76
2022-08-16T03:45:38.225Z,23.92
2022-08-16T03:50:44.324Z,23.27
2022-08-16T03:56:03.623Z,23.14
2022-08-16T04:01:07.824Z,23.18
2022-08-16T04:06:10.969Z,23.04
2022-08-16T04:11:16.435Z,22.81
2022-08-16T04:16:21.916Z,22.85
2022-08-16T04:21:30.871Z,22.80
2022-08-16T04:26:36.235Z,22.74
2022-08-16T04:31:40.646Z,22.63
2022-08-16T04:36:48.904Z,22.65
2022-08-16T04:41:57.100Z,22.53
2022-08-16T04:47:02.866Z,22.52
2022-08-16T04:52:33.349Z,22.58
2022-08-16T04:57:30.625Z,22.47
2022-08-16T05:02:41.649Z,22.62
2022-08-16T05:07:58.276Z,22.53
2022-08-16T05:13:03.802Z,22.44
2022-08-16T05:18:08.010Z,22.39
2022-08-16T05:23:31.725Z,22.41
2022-08-16T05:28:37.516Z,22.44
2022-08-16T05:33:44.368Z,22.36
2022-08-16T05:38:58.171Z,22.47
2022-08-16T05:44:05.353Z,22.43
2022-08-16T05:49:39.213Z,22.34
2022-08-16T05:54:47.783Z,22.34
2022-08-16T06:00:07.013Z,22.37
2022-08-16T06:05:22.594Z,22.32
2022-08-16T06:10:32.424Z,22.46
2022-08-16T06:15:39.050Z,22.38
2022-08-16T06:20:55.039Z,22.50
2022-08-16T06:26:00.417Z,22.49
2022-08-16T06:31:11.988Z,22.53
2022-08-16T06:36:20.943Z,22.41
2022-08-16T06:41:56.905Z,22.43
2022-08-16T06:47:41.929Z,22.56
2022-08-16T06:53:08.659Z,22.65
2022-08-16T06:58:21.703Z,22.78
2022-08-16T07:03:32.207Z,22.73
2022-08-16T07:08:38.344Z,22.79
2022-08-16T07:14:00.288Z,22.91
2022-08-16T07:19:09.694Z,22.93
2022-08-16T07:24:29.766Z,22.96
2022-08-16T07:29:37.500Z,22.89
2022-08-16T07:34:48.479Z,22.98
2022-08-16T07:39:54.992Z,22.92
2022-08-16T07:44:58.733Z,22.91
2022-08-16T07:50:05.435Z,22.96
2022-08-16T07:55:13.855Z,22.87
2022-08-16T08:00:18.731Z,23.05
2022-08-16T08:05:35.964Z,23.08
2022-08-16T08:10:42.218Z,23.14
2022-08-16T08:15:52.945Z,23.26
2022-08-16T08:20:59.354Z,23.40
2022-08-16T08:26:10.031Z,23.50
2022-08-16T08:31:20.501Z,23.50
2022-08-16T08:36:33.289Z,23.57
2022-08-16T08:41:42.426Z,23.61
2022-08-16T08:47:00.350Z,23.74
2022-08-16T08:52:07.958Z,23.84
2022-08-16T08:57:12.798Z,23.87
2022-08-16T09:02:52.591Z,23.93
2022-08-16T09:08:01.595Z,24.04
2022-08-16T09:13:21.148Z,24.09
2022-08-16T09:18:35.900Z,24.17
2022-08-16T09:23:41.067Z,24.23
2022-08-16T09:29:15.376Z,24.27
2022-08-16T09:34:12.964Z,24.34
2022-08-16T09:39:21.705Z,24.35
2022-08-16T09:45:11.181Z,24.49
2022-08-16T09:49:51.035Z,24.54
2022-08-16T09:54:54.637Z,24.59
2022-08-16T10:00:00.923Z,24.64
2022-08-16T10:05:15.090Z,24.68
2022-08-16T10:10:18.856Z,24.76
2022-08-16T10:15:35.119Z,24.80
2022-08-16T10:20:38.750Z,24.85
2022-08-16T10:27:19.780Z,24.91
2022-08-16T10:31:07.866Z,24.94
2022-08-16T10:36:38.786Z,24.99
2022-08-16T10:41:36.040Z,25.03
2022-08-16T10:46:42.258Z,25.09
2022-08-16T10:52:01.865Z,25.10
2022-08-16T10:57:06.493Z,25.13
2022-08-16T11:02:57.954Z,25.20
2022-08-16T11:07:42.954Z,25.24
2022-08-16T11:12:46.700Z,25.25
2022-08-16T11:18:48.481Z,25.32
2022-08-16T11:23:14.143Z,25.35
2022-08-16T11:33:59.383Z,25.44
2022-08-16T11:39:02.545Z,25.42
2022-08-16T11:44:06.451Z,25.42
2022-08-16T11:49:13.599Z,25.50
2022-08-16T11:54:21.160Z,25.57
2022-08-16T11:59:28.647Z,25.60
2022-08-16T12:04:34.003Z,25.51
2022-08-16T12:09:41.241Z,25.54
2022-08-16T12:14:46.046Z,25.53
2022-08-16T12:19:50.318Z,25.53
2022-08-16T12:24:53.351Z,25.54
2022-08-16T12:29:58.709Z,25.59
2022-08-16T12:35:03.378Z,25.59
2022-08-16T12:40:24.053Z,25.64
2022-08-16T12:45:29.386Z,25.64
2022-08-16T12:50:33.546Z,25.65
2022-08-16T12:55:41.880Z,25.61
2022-08-16T13:00:46.852Z,25.62
2022-08-16T13:05:55.197Z,25.68
2022-08-16T13:10:58.903Z,25.66
2022-08-16T13:16:10.733Z,25.67
2022-08-16T13:21:24.337Z,25.71
2022-08-16T13:26:29.123Z,25.76
2022-08-16T13:31:33.825Z,25.92
2022-08-16T13:36:48.788Z,26.13
2022-08-16T13:41:56.384Z,26.15
2022-08-16T13:46:59.290Z,26.13
2022-08-16T13:52:03.524Z,26.12
2022-08-16T13:57:06.661Z,26.13
2022-08-16T14:02:14.576Z,26.16
2022-08-16T14:07:20.026Z,26.15
2022-08-16T14:12:28.388Z,26.19
2022-08-16T14:18:15.931Z,26.20
2022-08-16T14:22:55.668Z,26.22
2022-08-16T14:27:58.430Z,26.23
2022-08-16T14:33:04.263Z,26.26
2022-08-16T14:38:10.851Z,26.30
2022-08-16T14:43:16.309Z,26.29
2022-08-16T14:48:26.087Z,26.28
2022-08-16T14:53:32.639Z,26.32
2022-08-16T14:58:38.019Z,26.33
2022-08-16T15:03:42.263Z,26.37
2022-08-16T15:08:48.718Z,26.47
2022-08-16T15:13:54.945Z,26.53
2022-08-16T15:18:59.091Z,26.62
2022-08-16T15:24:03.269Z,26.69
2022-08-16T15:29:08.408Z,26.67
2022-08-16T15:34:21.870Z,26.71
2022-08-16T15:39:38.898Z,26.79
2022-08-16T15:44:52.309Z,26.81
2022-08-16T15:49:57.885Z,26.81
2022-08-16T15:55:13.311Z,26.80
2022-08-16T16:00:27.532Z,26.82
2022-08-16T16:05:30.580Z,26.85
2022-08-16T16:10:37.319Z,26.93
2022-08-16T16:15:43.429Z,26.96
2022-08-16T16:20:48.089Z,26.97
2022-08-16T16:25:53.492Z,27.01
2022-08-16T16:30:56.626Z,27.01
2022-08-16T16:36:00.111Z,27.16
2022-08-16T16:41:08.895Z,28.39
2022-08-16T16:46:41.396Z,28.63
2022-08-16T16:51:40.950Z,27.60
2022-08-16T16:56:49.664Z,27.53
2022-08-16T17:02:00.211Z,27.43
2022-08-16T17:07:15.983Z,27.40
2022-08-16T17:12:25.076Z,27.36
2022-08-16T17:18:00.304Z,27.33
2022-08-16T17:23:04.882Z,27.31
2022-08-16T17:28:58.132Z,27.30
2022-08-16T17:33:37.282Z,27.28
2022-08-16T17:38:55.861Z,27.26
2022-08-16T17:44:01.020Z,27.30
2022-08-16T17:49:03.904Z,27.33
2022-08-16T17:54:06.819Z,27.33
2022-08-16T17:59:11.187Z,27.35
2022-08-16T18:04:14.046Z,27.35
2022-08-16T18:09:36.815Z,27.33
2022-08-16T18:14:51.042Z,27.37
2022-08-16T18:19:55.547Z,27.36
2022-08-16T18:24:58.293Z,27.32
2022-08-16T18:30:02.482Z,27.38
2022-08-16T18:35:05.819Z,27.36
2022-08-16T18:40:09.937Z,27.37
2022-08-16T18:45:14.397Z,27.39
2022-08-16T18:50:17.354Z,27.36
2022-08-16T18:55:20.706Z,27.39
2022-08-16T19:00:28.425Z,27.37
2022-08-16T19:05:31.857Z,27.39
2022-08-16T19:10:34.750Z,27.37
2022-08-16T19:15:39.165Z,27.32
2022-08-16T19:20:42.035Z,27.32
2022-08-16T19:25:49.535Z,27.31
2022-08-16T19:30:57.083Z,27.34
2022-08-16T19:35:59.849Z,27.25
2022-08-16T19:41:02.583Z,27.14
2022-08-16T19:46:07.291Z,27.17
2022-08-16T19:51:10.140Z,27.19
2022-08-16T19:56:13.180Z,27.16
2022-08-16T20:01:17.865Z,27.17
2022-08-16T20:06:38.086Z,27.22
2022-08-16T20:11:41.596Z,27.20
2022-08-16T20:16:46.692Z,27.20
2022-08-16T20:21:49.822Z,27.17
2022-08-16T20:26:52.599Z,27.12
2022-08-16T20:31:56.800Z,27.12
2022-08-16T20:36:59.609Z,27.12
2022-08-16T20:42:02.442Z,27.13
2022-08-16T20:47:07.111Z,27.15
2022-08-16T20:52:10.653Z,27.13
2022-08-16T20:57:13.573Z,27.10
2022-08-16T21:02:24.818Z,27.09
2022-08-16T21:07:27.582Z,27.07
2022-08-16T21:12:33.818Z,27.08
2022-08-16T21:17:41.830Z,27.13
2022-08-16T21:22:47.141Z,27.15
2022-08-16T21:28:41.272Z,27.17
2022-08-16T21:33:18.226Z,27.14
2022-08-16T21:38:28.612Z,27.16
2022-08-16T21:43:33.546Z,27.17
2022-08-16T21:48:40.508Z,27.21
2022-08-16T21:53:43.805Z,27.15
2022-08-16T21:58:46.580Z,27.19
2022-08-16T22:03:57.993Z,27.20
2022-08-16T22:09:19.815Z,27.20
2022-08-16T22:14:22.646Z,27.16
2022-08-16T22:19:26.847Z,27.12
2022-08-16T22:24:29.724Z,27.07
2022-08-16T22:29:32.480Z,26.99
2022-08-16T22:34:36.622Z,26.98
2022-08-16T22:39:39.472Z,26.92
2022-08-16T22:44:46.308Z,26.83
2022-08-16T22:49:50.746Z,26.80
2022-08-16T22:54:53.619Z,26.81
2022-08-16T22:59:56.353Z,26.72
2022-08-16T23:05:00.434Z,26.73
2022-08-16T23:10:03.208Z,26.76
2022-08-16T23:15:06.839Z,26.73
2022-08-16T23:20:12.527Z,26.71
2022-08-16T23:25:19.650Z,26.65
2022-08-16T23:30:22.555Z,26.65
2022-08-16T23:35:27.742Z,26.64
2022-08-16T23:40:48.376Z,26.59
2022-08-16T23:45:52.600Z,26.56
2022-08-16T23:50:56.993Z,26.48
2022-08-16T23:56:00.939Z,26.41
